Time;durP1;ratioP1;P1;durP2;ratioP2;P2;SDS_P1;SDS_P2;PMS_P1;PMS_P2;Temp;Humidity;BMP_temperature;BMP_pressure;BME280_temperature;BME280_humidity;BME280_pressure;Samples;Min_cycle;Max_cycle;Signal;HPM_P1;HPM_P2
2021/04/22 15:57:20;;;;;;;6.93;3.75;;;14.40;99.90;;;;;;6252748;22;930424;-80
2021/04/22 15:59:49;;;;;;;7.82;3.30;;;14.30;99.90;;;;;;6336825;22;20408;-83
2021/04/22 16:02:19;;;;;;;4.93;2.65;;;14.30;99.90;;;;;;6336679;22;20059;-81
2021/04/22 16:04:45;;;;;;;6.78;3.20;;;14.20;99.90;;;;;;6339063;22;20006;-84
2021/04/22 16:07:12;;;;;;;10.00;3.00;;;14.20;99.90;;;;;;6311739;22;20003;-83
2021/04/22 16:09:38;;;;;;;6.85;3.33;;;14.10;99.90;;;;;;6312071;22;20091;-83
2021/04/22 16:12:06;;;;;;;9.70;3.03;;;14.10;99.90;;;;;;6339220;22;20006;-81
2021/04/22 16:14:32;;;;;;;7.22;2.85;;;14.10;99.90;;;;;;6339012;22;20459;-83
2021/04/22 16:16:59;;;;;;;7.70;2.60;;;14.00;99.90;;;;;;6339015;22;20440;-85
2021/04/22 16:19:28;;;;;;;7.40;2.50;;;14.10;99.90;;;;;;6339277;22;20003;-84
2021/04/22 16:21:57;;;;;;;5.93;4.15;;;14.00;99.90;;;;;;6311564;22;20095;-83
2021/04/22 16:24:23;;;;;;;5.65;3.80;;;14.10;99.90;;;;;;6311431;22;20362;-82
2021/04/22 16:26:53;;;;;;;9.90;3.33;;;14.00;99.90;;;;;;6338932;22;20007;-81
2021/04/22 16:29:20;;;;;;;9.88;2.85;;;14.00;99.90;;;;;;6285935;22;20011;-80
2021/04/22 16:31:47;;;;;;;7.57;3.60;;;14.00;99.90;;;;;;6339442;22;20128;-81
2021/04/22 16:34:14;;;;;;;7.72;2.78;;;13.90;99.90;;;;;;6338390;22;20312;-82
2021/04/22 16:36:40;;;;;;;6.82;3.38;;;13.90;99.90;;;;;;6339608;22;20003;-81
2021/04/22 16:39:07;;;;;;;9.27;3.20;;;13.80;99.90;;;;;;6339447;22;20003;-81
2021/04/22 16:41:35;;;;;;;7.75;3.58;;;13.80;99.90;;;;;;6338588;22;20006;-78
2021/04/22 16:44:05;;;;;;;6.40;3.22;;;13.90;99.90;;;;;;6338553;22;20485;-82
2021/04/22 16:46:32;;;;;;;6.43;3.70;;;13.90;99.90;;;;;;6342165;22;20034;-78
2021/04/22 16:48:58;;;;;;;4.25;3.15;;;13.90;99.90;;;;;;6339682;22;20006;-79
2021/04/22 16:51:25;;;;;;;6.93;3.58;;;13.90;99.90;;;;;;6338761;22;20002;-77
2021/04/22 16:53:51;;;;;;;7.85;3.47;;;13.80;99.90;;;;;;6338623;22;20475;-79
2021/04/22 16:56:18;;;;;;;6.15;3.40;;;13.80;99.90;;;;;;6338604;22;20428;-79
2021/04/22 16:58:45;;;;;;;6.15;3.20;;;13.80;99.90;;;;;;6338354;22;20010;-78
2021/04/22 17:01:11;;;;;;;5.13;3.15;;;13.80;99.90;;;;;;6338624;22;20144;-79
2021/04/22 17:03:37;;;;;;;6.93;3.10;;;13.80;99.90;;;;;;6338746;22;20416;-82
2021/04/22 17:06:04;;;;;;;9.63;3.30;;;13.80;99.90;;;;;;6311684;22;20329;-79
2021/04/22 17:08:30;;;;;;;11.95;3.45;;;13.70;99.90;;;;;;6338576;22;19999;-78
2021/04/22 17:10:56;;;;;;;5.93;3.33;;;13.70;99.90;;;;;;6338633;22;20085;-81
2021/04/22 17:13:25;;;;;;;6.65;3.53;;;13.70;99.90;;;;;;6338268;22;20401;-81
2021/04/22 17:15:51;;;;;;;8.82;3.53;;;13.70;99.90;;;;;;6338502;22;20018;-81
2021/04/22 17:18:17;;;;;;;8.70;3.67;;;13.70;99.90;;;;;;6338509;22;20002;-79
2021/04/22 17:20:43;;;;;;;5.55;2.70;;;13.60;99.90;;;;;;6338239;22;20006;-79
2021/04/22 17:23:09;;;;;;;8.02;3.88;;;13.60;99.90;;;;;;6338649;22;20060;-82
2021/04/22 17:25:35;;;;;;;8.20;3.45;;;13.60;99.90;;;;;;6338578;22;20007;-81
2021/04/22 17:28:01;;;;;;;8.13;4.05;;;13.60;99.90;;;;;;6338393;22;20003;-80
2021/04/22 17:30:27;;;;;;;7.25;2.97;;;13.60;99.90;;;;;;6310833;22;20010;-82
2021/04/22 17:32:54;;;;;;;8.48;3.70;;;13.70;99.90;;;;;;6338469;22;19995;-79
2021/04/22 17:35:24;;;;;;;7.72;3.38;;;13.60;99.90;;;;;;6284995;22;20060;-82
2021/04/22 17:37:55;;;;;;;7.22;3.70;;;13.70;99.90;;;;;;6338591;22;20332;-77
2021/04/22 17:40:24;;;;;;;10.25;4.40;;;13.70;99.90;;;;;;6310713;22;20010;-78
2021/04/22 17:42:51;;;;;;;6.82;3.80;;;13.70;99.90;;;;;;6338507;22;20003;-81
2021/04/22 17:45:18;;;;;;;13.82;4.20;;;13.70;99.90;;;;;;6338376;22;19999;-81
2021/04/22 17:47:45;;;;;;;7.43;4.05;;;13.70;99.90;;;;;;6338278;22;19998;-82
2021/04/22 17:50:14;;;;;;;7.22;4.60;;;13.60;99.90;;;;;;6338307;22;20304;-78
2021/04/22 17:52:40;;;;;;;7.30;4.18;;;13.70;99.90;;;;;;6338142;22;19998;-81
2021/04/22 17:55:08;;;;;;;7.88;3.33;;;13.70;99.90;;;;;;6338313;22;19999;-82
2021/04/22 17:57:35;;;;;;;13.13;3.95;;;13.70;99.90;;;;;;6338044;22;20006;-78
2021/04/22 18:00:04;;;;;;;5.43;3.45;;;13.70;99.90;;;;;;6341159;22;20022;-81
2021/04/22 18:02:43;;;;;;;11.82;4.25;;;13.70;99.90;;;;;;6340312;22;20014;-81
2021/04/22 18:05:19;;;;;;;9.98;4.35;;;13.60;99.90;;;;;;6338389;22;20037;-79
2021/04/22 18:07:45;;;;;;;8.60;3.97;;;13.60;99.90;;;;;;6338079;22;20078;-81
2021/04/22 18:10:12;;;;;;;11.50;4.53;;;13.60;99.90;;;;;;6338755;22;19995;-81
2021/04/22 18:12:39;;;;;;;9.50;4.65;;;13.60;99.90;;;;;;6338278;22;20378;-79
2021/04/22 18:15:07;;;;;;;5.45;3.13;;;13.60;99.90;;;;;;6338526;22;20360;-77
2021/04/22 18:17:34;;;;;;;5.40;3.60;;;13.60;99.90;;;;;;6338202;22;20030;-78
2021/04/22 18:20:00;;;;;;;7.03;3.70;;;13.70;99.90;;;;;;6337934;22;20015;-82
2021/04/22 18:22:26;;;;;;;6.55;3.58;;;13.70;99.90;;;;;;6337969;22;20003;-79
2021/04/22 18:24:52;;;;;;;9.25;4.40;;;13.70;99.90;;;;;;6341318;22;20073;-79
2021/04/22 18:27:18;;;;;;;9.38;3.58;;;13.60;99.90;;;;;;6341343;22;20026;-81
2021/04/22 18:29:44;;;;;;;7.93;3.53;;;13.70;99.90;;;;;;6341519;22;19998;-77
2021/04/22 18:32:10;;;;;;;9.88;3.72;;;13.70;99.90;;;;;;6341700;22;20069;-81
2021/04/22 18:34:36;;;;;;;6.03;3.95;;;13.70;99.90;;;;;;6341338;22;19995;-82
2021/04/22 18:37:02;;;;;;;7.55;4.30;;;13.70;99.90;;;;;;6341293;22;20321;-80
2021/04/22 18:39:28;;;;;;;9.60;4.13;;;13.70;99.90;;;;;;6341346;22;20022;-81
2021/04/22 18:41:55;;;;;;;5.55;3.15;;;13.70;99.90;;;;;;6341152;22;20502;-80
2021/04/22 18:44:22;;;;;;;7.90;3.28;;;13.70;99.90;;;;;;6341190;22;20006;-81
2021/04/22 18:46:51;;;;;;;6.60;3.83;;;13.70;99.90;;;;;;6341447;22;20369;-78
2021/04/22 18:49:18;;;;;;;14.90;4.93;;;13.70;99.90;;;;;;6341701;22;20459;-77
2021/04/22 18:51:51;;;;;;;10.45;3.45;;;13.70;99.90;;;;;;6341096;22;20072;-77
2021/04/22 18:54:27;;;;;;;5.15;3.38;;;13.70;99.90;;;;;;6341491;22;20006;-81
2021/04/22 18:56:55;;;;;;;7.88;3.92;;;13.70;99.90;;;;;;6341144;22;19999;-78
2021/04/22 18:59:22;;;;;;;10.98;3.78;;;13.70;99.90;;;;;;6341343;22;20022;-78
2021/04/22 19:01:48;;;;;;;12.40;4.28;;;13.70;99.90;;;;;;6314018;22;20340;-81
2021/04/22 19:04:15;;;;;;;7.72;3.78;;;13.70;99.90;;;;;;6341431;22;20417;-81
2021/04/22 19:06:41;;;;;;;7.32;3.50;;;13.80;99.90;;;;;;6341656;22;20089;-81
2021/04/22 19:09:08;;;;;;;13.50;3.72;;;13.80;99.90;;;;;;6313653;22;20417;-81
2021/04/22 19:11:38;;;;;;;11.20;3.90;;;13.80;99.90;;;;;;6341431;22;20003;-78
2021/04/22 19:14:05;;;;;;;10.10;4.20;;;13.80;99.90;;;;;;6343109;22;20007;-78
2021/04/22 19:16:31;;;;;;;16.92;3.65;;;13.70;99.90;;;;;;6345485;22;20021;-81
2021/04/22 19:18:57;;;;;;;6.93;4.13;;;13.70;99.90;;;;;;6341541;22;20333;-78
2021/04/22 19:21:24;;;;;;;10.52;4.10;;;13.70;99.90;;;;;;6341285;22;20463;-81
2021/04/22 19:23:51;;;;;;;7.75;3.13;;;13.70;99.90;;;;;;6341206;22;20007;-82
2021/04/22 19:26:21;;;;;;;10.52;3.42;;;13.70;99.90;;;;;;6341125;22;20034;-80
2021/04/22 19:28:47;;;;;;;10.80;4.32;;;13.70;99.90;;;;;;6341344;22;20148;-78
2021/04/22 19:31:13;;;;;;;9.80;4.05;;;13.70;99.90;;;;;;6341037;22;20409;-82
2021/04/22 19:33:39;;;;;;;7.82;3.60;;;13.80;99.90;;;;;;6341216;22;20335;-77
2021/04/22 19:36:06;;;;;;;7.90;3.83;;;13.80;99.90;;;;;;6339446;22;20006;-82
2021/04/22 19:38:32;;;;;;;14.07;3.65;;;13.80;99.90;;;;;;6339346;22;20002;-82
2021/04/22 19:40:59;;;;;;;10.52;4.43;;;13.80;99.90;;;;;;6339319;22;20015;-82
2021/04/22 19:43:28;;;;;;;10.48;3.58;;;13.80;99.90;;;;;;6339428;22;19995;-82
2021/04/22 19:45:57;;;;;;;5.88;3.47;;;13.80;99.90;;;;;;6339232;22;20002;-82
2021/04/22 19:48:26;;;;;;;8.45;4.45;;;13.80;99.90;;;;;;6339310;22;20443;-80
2021/04/22 19:50:59;;;;;;;5.07;3.28;;;13.80;99.90;;;;;;6339355;22;20439;-80
2021/04/22 19:53:26;;;;;;;6.38;3.20;;;13.90;99.90;;;;;;6339236;22;20029;-81
2021/04/22 19:55:55;;;;;;;6.72;3.28;;;13.90;99.90;;;;;;6339422;22;20075;-81
2021/04/22 19:58:26;;;;;;;6.25;3.33;;;13.90;99.90;;;;;;6339006;22;20014;-77
2021/04/22 20:00:53;;;;;;;8.20;3.55;;;13.80;99.90;;;;;;6339230;22;20432;-82
2021/04/22 20:03:19;;;;;;;10.45;4.93;;;13.90;99.90;;;;;;6339771;22;19999;-81
2021/04/22 20:05:45;;;;;;;9.40;3.25;;;13.80;99.90;;;;;;6339205;22;20003;-80
2021/04/22 20:08:12;;;;;;;8.95;3.92;;;13.80;99.90;;;;;;6338999;22;20093;-78
2021/04/22 20:10:38;;;;;;;10.27;3.20;;;13.80;99.90;;;;;;6339080;22;20003;-82
2021/04/22 20:13:05;;;;;;;9.85;4.10;;;13.90;99.90;;;;;;6339148;22;19999;-81
2021/04/22 20:15:32;;;;;;;10.63;4.05;;;13.90;99.90;;;;;;6338929;22;20003;-78
2021/04/22 20:17:58;;;;;;;10.10;3.15;;;13.90;99.90;;;;;;6311856;22;20078;-80
2021/04/22 20:20:25;;;;;;;8.18;3.25;;;13.90;99.90;;;;;;6338828;22;20007;-82
2021/04/22 20:22:56;;;;;;;7.82;3.90;;;13.90;99.90;;;;;;6338867;22;20010;-81
2021/04/22 20:25:24;;;;;;;7.72;3.95;;;13.90;99.90;;;;;;6311428;22;20002;-82
2021/04/22 20:27:50;;;;;;;7.75;3.83;;;13.90;99.90;;;;;;6312531;22;20034;-81
2021/04/22 20:30:19;;;;;;;10.98;5.15;;;13.90;99.90;;;;;;6354104;22;19979;-81
2021/04/22 20:32:45;;;;;;;6.65;3.90;;;13.90;99.90;;;;;;6338962;22;20009;-82
2021/04/22 20:35:14;;;;;;;7.47;3.40;;;13.90;99.90;;;;;;6339247;22;20345;-81
2021/04/22 20:37:40;;;;;;;6.18;3.53;;;14.00;99.90;;;;;;6338660;22;20026;-82
2021/04/22 20:40:08;;;;;;;9.60;3.70;;;13.90;99.90;;;;;;6338984;22;20447;-79
2021/04/22 20:42:34;;;;;;;6.05;3.30;;;14.00;99.90;;;;;;6338867;22;19999;-78
2021/04/22 20:45:01;;;;;;;10.55;3.40;;;13.90;99.90;;;;;;6338702;22;19995;-79
2021/04/22 20:47:28;;;;;;;7.80;3.80;;;14.00;99.90;;;;;;6338182;22;20005;-78
2021/04/22 20:49:59;;;;;;;7.90;3.35;;;14.00;99.90;;;;;;6338730;22;19995;-81
2021/04/22 20:52:25;;;;;;;12.40;4.25;;;14.00;99.90;;;;;;6338754;22;20452;-82
2021/04/22 20:54:52;;;;;;;8.63;5.30;;;14.00;99.90;;;;;;6338632;22;20324;-80
2021/04/22 20:57:18;;;;;;;10.07;4.35;;;14.00;99.90;;;;;;6338434;22;20513;-79
2021/04/22 20:59:44;;;;;;;9.05;3.72;;;14.00;99.90;;;;;;6311321;22;19999;-80
2021/04/22 21:02:14;;;;;;;11.07;4.15;;;13.90;99.90;;;;;;6338534;22;20010;-81
2021/04/22 21:04:40;;;;;;;8.80;3.80;;;13.90;99.90;;;;;;6338650;22;20180;-82
2021/04/22 21:07:06;;;;;;;7.97;3.85;;;13.90;99.90;;;;;;6338529;22;20021;-82
2021/04/22 21:09:34;;;;;;;6.75;4.68;;;13.90;99.90;;;;;;6338553;22;20051;-78
2021/04/22 21:12:04;;;;;;;7.65;3.40;;;13.90;99.90;;;;;;6311075;22;20332;-81
2021/04/22 21:14:30;;;;;;;9.50;3.70;;;13.90;99.90;;;;;;6338626;22;20365;-81
2021/04/22 21:16:56;;;;;;;8.52;3.25;;;13.90;99.90;;;;;;6338679;22;20059;-79
2021/04/22 21:19:24;;;;;;;10.10;3.60;;;13.90;99.90;;;;;;6338726;22;20003;-81
2021/04/22 21:21:53;;;;;;;14.52;4.32;;;13.90;99.90;;;;;;6338573;22;20374;-82
2021/04/22 21:24:23;;;;;;;7.25;2.95;;;13.90;99.90;;;;;;6310840;22;20003;-82
2021/04/22 21:27:05;;;;;;;11.75;3.58;;;13.90;99.90;;;;;;6338480;22;20413;-82
2021/04/22 21:29:37;;;;;;;8.38;3.90;;;13.90;99.90;;;;;;6338443;22;19999;-77
2021/04/22 21:32:06;;;;;;;8.38;3.83;;;13.90;99.90;;;;;;6338734;22;20462;-82
2021/04/22 21:34:33;;;;;;;16.88;4.68;;;13.90;99.90;;;;;;6338552;22;20002;-80
2021/04/22 21:36:59;;;;;;;8.73;4.20;;;13.90;99.90;;;;;;6338439;22;20009;-81
2021/04/22 21:39:26;;;;;;;11.27;4.88;;;13.90;99.90;;;;;;6338319;22;20010;-79
2021/04/22 21:41:53;;;;;;;7.32;3.65;;;13.90;99.90;;;;;;6338372;22;20017;-82
2021/04/22 21:44:20;;;;;;;6.68;3.17;;;13.90;99.90;;;;;;6341862;22;20006;-79
2021/04/22 21:46:47;;;;;;;12.65;4.82;;;14.00;99.90;;;;;;6340921;22;20006;-77
2021/04/22 21:49:13;;;;;;;8.93;3.45;;;13.90;99.90;;;;;;6338549;22;20324;-82
2021/04/22 21:51:40;;;;;;;6.53;3.60;;;14.00;99.90;;;;;;6338376;22;20073;-83
2021/04/22 21:54:07;;;;;;;6.68;3.70;;;14.00;99.90;;;;;;6338441;22;20002;-81
2021/04/22 21:56:34;;;;;;;8.63;3.53;;;14.00;99.90;;;;;;6310586;22;20003;-80
2021/04/22 21:59:00;;;;;;;32.83;6.10;;;13.90;99.90;;;;;;6337627;22;20038;-78
2021/04/22 22:01:27;;;;;;;9.85;3.92;;;14.00;99.90;;;;;;6338012;22;20021;-78
2021/04/22 22:03:54;;;;;;;7.40;2.85;;;14.00;99.90;;;;;;6338104;22;20000;-76
2021/04/22 22:06:21;;;;;;;8.75;3.83;;;13.90;99.90;;;;;;6338069;22;20018;-78
2021/04/22 22:08:47;;;;;;;6.78;3.65;;;13.90;99.90;;;;;;6338279;22;19999;-81
2021/04/22 22:11:14;;;;;;;7.50;3.85;;;13.90;99.90;;;;;;6310429;22;20022;-81
2021/04/22 22:13:40;;;;;;;7.15;3.50;;;13.90;99.90;;;;;;6310138;22;20941;-80
2021/04/22 22:16:06;;;;;;;12.75;4.40;;;13.80;99.90;;;;;;6338050;22;20010;-80
2021/04/22 22:18:32;;;;;;;10.45;3.67;;;13.80;99.90;;;;;;6337961;22;20052;-79
2021/04/22 22:20:58;;;;;;;9.25;3.65;;;13.80;99.90;;;;;;6284724;22;20008;-77
2021/04/22 22:23:25;;;;;;;5.35;3.30;;;13.80;99.90;;;;;;6338134;22;20181;-76
2021/04/22 22:25:53;;;;;;;5.18;3.25;;;13.80;99.90;;;;;;6338256;22;20048;-79
2021/04/22 22:28:19;;;;;;;5.90;3.30;;;13.80;99.90;;;;;;6337984;22;20083;-81
2021/04/22 22:30:46;;;;;;;9.93;3.17;;;13.80;99.90;;;;;;6338245;22;20051;-80
2021/04/22 22:33:16;;;;;;;5.53;2.83;;;13.90;99.90;;;;;;6337936;22;19999;-79
2021/04/22 22:35:46;;;;;;;4.95;3.22;;;13.90;99.90;;;;;;6310280;22;20003;-77
2021/04/22 22:38:12;;;;;;;8.23;3.95;;;13.90;99.90;;;;;;6310232;22;20003;-77
2021/04/22 22:40:39;;;;;;;10.18;3.80;;;13.90;99.90;;;;;;6337855;22;20010;-77
2021/04/22 22:43:07;;;;;;;9.02;2.85;;;13.90;99.90;;;;;;6337971;22;20006;-79
2021/04/22 22:45:35;;;;;;;13.35;4.32;;;13.90;99.90;;;;;;6338158;22;20031;-81
2021/04/22 22:48:02;;;;;;;11.68;3.65;;;13.90;99.90;;;;;;6310340;22;20056;-80
2021/04/22 22:50:28;;;;;;;9.23;3.08;;;13.90;99.90;;;;;;6337823;22;20298;-81
2021/04/22 22:52:54;;;;;;;5.95;3.08;;;13.90;99.90;;;;;;6337989;22;20024;-81
2021/04/22 22:55:22;;;;;;;4.68;2.65;;;13.90;99.90;;;;;;6337659;22;20026;-80
2021/04/22 22:57:52;;;;;;;9.63;3.20;;;13.90;99.90;;;;;;6339414;22;20018;-76
2021/04/22 23:00:22;;;;;;;6.75;3.88;;;13.90;99.90;;;;;;6349953;22;20310;-78
2021/04/22 23:02:48;;;;;;;4.97;2.50;;;13.90;99.90;;;;;;6337793;22;20480;-77
2021/04/22 23:05:18;;;;;;;10.43;3.53;;;13.90;99.90;;;;;;6337861;22;20003;-80
2021/04/22 23:07:44;;;;;;;15.68;2.72;;;13.80;99.90;;;;;;6337987;22;20006;-76
2021/04/22 23:10:12;;;;;;;6.47;2.80;;;13.80;99.90;;;;;;6338585;22;20324;-78
2021/04/22 23:12:40;;;;;;;6.53;3.10;;;13.90;99.90;;;;;;6339692;22;20055;-77
2021/04/22 23:15:08;;;;;;;9.25;3.17;;;13.80;99.90;;;;;;6339403;22;19999;-81
2021/04/22 23:17:34;;;;;;;7.43;3.47;;;13.80;99.90;;;;;;6339473;22;19999;-76
2021/04/22 23:20:00;;;;;;;5.57;2.97;;;13.80;99.90;;;;;;6339713;22;20018;-78
2021/04/22 23:22:26;;;;;;;10.80;3.88;;;13.80;99.90;;;;;;6339539;22;20432;-80
2021/04/22 23:24:52;;;;;;;8.93;2.97;;;13.80;99.90;;;;;;6339583;22;20074;-80
2021/04/22 23:27:19;;;;;;;3.72;2.35;;;13.80;99.90;;;;;;6339792;22;20078;-77
2021/04/22 23:29:44;;;;;;;5.75;3.33;;;13.80;99.90;;;;;;6339484;22;20456;-81
2021/04/22 23:32:10;;;;;;;8.80;2.80;;;13.80;99.90;;;;;;6339437;22;20025;-81
2021/04/22 23:34:36;;;;;;;6.35;3.05;;;13.80;99.90;;;;;;6339436;22;20013;-78
2021/04/22 23:37:02;;;;;;;10.50;3.22;;;13.80;99.90;;;;;;6339319;22;20020;-81
2021/04/22 23:39:28;;;;;;;8.38;3.20;;;13.90;99.90;;;;;;6339415;22;20022;-81
2021/04/22 23:41:54;;;;;;;8.32;3.05;;;13.80;99.90;;;;;;6339397;22;20498;-80
2021/04/22 23:44:21;;;;;;;6.60;3.28;;;13.90;99.90;;;;;;6311613;22;20002;-80
2021/04/22 23:46:46;;;;;;;11.57;3.97;;;13.90;99.90;;;;;;6339225;22;20010;-77
2021/04/22 23:49:13;;;;;;;8.50;2.88;;;13.90;99.90;;;;;;6339288;22;19995;-75
2021/04/22 23:51:39;;;;;;;7.50;3.47;;;13.80;99.90;;;;;;6339515;22;20026;-81
2021/04/22 23:54:05;;;;;;;4.63;2.87;;;13.90;99.90;;;;;;6311840;22;19995;-77
2021/04/22 23:56:31;;;;;;;5.95;3.10;;;13.90;99.90;;;;;;6339566;22;20232;-77
2021/04/22 23:59:23;;;;;;;7.45;3.53;;;13.90;99.90;;;;;;6338746;22;20084;-81
